createdAt,value
2018-09-09T00:00:15.453Z,16.49
2018-09-09T00:02:43.113Z,16.49
2018-09-09T00:05:10.782Z,16.52
2018-09-09T00:07:38.432Z,16.46
2018-09-09T00:10:06.509Z,16.51
2018-09-09T00:12:34.153Z,16.57
2018-09-09T00:15:01.823Z,16.60
2018-09-09T00:17:29.457Z,16.59
2018-09-09T00:19:57.225Z,16.64
2018-09-09T00:22:24.890Z,16.68
2018-09-09T00:24:52.605Z,16.67
2018-09-09T00:27:20.366Z,16.58
2018-09-09T00:29:48.026Z,16.62
2018-09-09T00:32:15.692Z,16.61
2018-09-09T00:34:43.465Z,16.59
2018-09-09T00:37:11.118Z,16.60
2018-09-09T00:39:38.800Z,16.61
2018-09-09T00:42:06.602Z,16.57
2018-09-09T00:44:34.280Z,16.61
2018-09-09T00:47:01.944Z,16.58
2018-09-09T00:49:35.341Z,16.51
2018-09-09T00:52:08.479Z,16.56
2018-09-09T00:54:36.244Z,16.60
2018-09-09T00:57:03.941Z,16.58
2018-09-09T00:59:31.612Z,16.55
2018-09-09T01:01:59.377Z,16.57
2018-09-09T01:04:27.022Z,16.60
2018-09-09T01:06:54.658Z,16.66
2018-09-09T01:09:26.909Z,16.65
2018-09-09T01:11:54.562Z,16.58
2018-09-09T01:14:22.207Z,16.51
2018-09-09T01:16:49.975Z,16.55
2018-09-09T01:19:17.647Z,16.53
2018-09-09T01:21:45.323Z,16.53
2018-09-09T01:24:13.079Z,16.59
2018-09-09T01:26:40.750Z,16.55
2018-09-09T01:29:08.417Z,16.58
2018-09-09T01:31:36.169Z,16.66
2018-09-09T01:34:03.857Z,16.65
2018-09-09T01:36:31.529Z,16.59
2018-09-09T01:38:59.289Z,16.59
2018-09-09T01:41:26.957Z,16.56
2018-09-09T01:43:54.626Z,16.61
2018-09-09T01:46:22.402Z,16.64
2018-09-09T01:48:50.055Z,16.52
2018-09-09T01:51:17.728Z,16.52
2018-09-09T01:53:45.395Z,16.56
2018-09-09T01:56:13.093Z,16.54
2018-09-09T01:58:40.792Z,16.47
2018-09-09T02:01:08.458Z,16.53
2018-09-09T02:03:36.217Z,16.61
2018-09-09T02:06:03.909Z,16.64
2018-09-09T02:08:31.562Z,16.62
2018-09-09T02:11:00.428Z,16.60
2018-09-09T02:13:29.540Z,16.63
2018-09-09T02:15:57.206Z,16.64
2018-09-09T02:18:24.885Z,16.61
2018-09-09T02:20:52.569Z,16.63
2018-09-09T02:23:20.242Z,16.64
2018-09-09T02:25:48.024Z,16.57
2018-09-09T02:28:15.622Z,16.58
2018-09-09T02:30:43.277Z,16.61
2018-09-09T02:33:11.473Z,16.63
2018-09-09T02:35:39.120Z,16.58
2018-09-09T02:38:06.770Z,16.61
2018-09-09T02:40:34.496Z,16.43
2018-09-09T02:43:02.309Z,16.51
2018-09-09T02:45:29.976Z,16.51
2018-09-09T02:47:57.644Z,16.54
2018-09-09T02:50:25.306Z,16.51
2018-09-09T02:52:52.968Z,16.55
2018-09-09T02:55:20.629Z,16.49
2018-09-09T02:57:48.311Z,16.51
2018-09-09T03:00:15.969Z,16.55
2018-09-09T03:02:43.769Z,16.50
2018-09-09T03:05:11.432Z,16.53
2018-09-09T03:07:39.079Z,16.54
2018-09-09T03:10:06.771Z,16.53
2018-09-09T03:12:34.425Z,16.54
2018-09-09T03:15:02.112Z,16.52
2018-09-09T03:17:29.781Z,16.57
2018-09-09T03:19:57.513Z,16.54
2018-09-09T03:22:25.172Z,16.52
2018-09-09T03:24:52.833Z,16.52
2018-09-09T03:27:20.552Z,16.50
2018-09-09T03:29:48.197Z,16.50
2018-09-09T03:32:15.848Z,16.51
2018-09-09T03:34:43.507Z,16.34
2018-09-09T03:37:11.165Z,16.43
2018-09-09T03:39:38.848Z,16.43
2018-09-09T03:42:06.639Z,16.45
2018-09-09T03:44:34.293Z,16.44
2018-09-09T03:47:02.214Z,16.41
2018-09-09T03:49:29.873Z,16.36
2018-09-09T03:51:57.541Z,16.36
2018-09-09T03:54:25.211Z,16.38
2018-09-09T03:56:52.870Z,16.43
2018-09-09T03:59:20.515Z,16.14
2018-09-09T04:01:48.168Z,16.29
2018-09-09T04:04:15.824Z,16.31
2018-09-09T04:06:43.485Z,16.28
2018-09-09T04:09:11.125Z,16.31
2018-09-09T04:11:38.778Z,16.03
2018-09-09T04:14:06.537Z,16.18
2018-09-09T04:16:34.197Z,16.13
2018-09-09T04:19:01.869Z,16.14
2018-09-09T04:21:29.535Z,16.28
2018-09-09T04:23:57.198Z,16.30
2018-09-09T04:26:24.870Z,16.29
2018-09-09T04:28:52.502Z,16.26
2018-09-09T04:31:20.172Z,16.29
2018-09-09T04:33:47.869Z,15.99
2018-09-09T04:36:15.536Z,16.07
2018-09-09T04:38:43.186Z,16.14
2018-09-09T04:41:10.839Z,16.20
2018-09-09T04:43:38.487Z,16.02
2018-09-09T04:46:06.164Z,16.06
2018-09-09T04:48:33.821Z,16.13
2018-09-09T04:51:01.478Z,16.18
2018-09-09T04:53:29.156Z,16.24
2018-09-09T04:55:56.818Z,16.24
2018-09-09T04:58:24.509Z,16.12
2018-09-09T05:00:52.323Z,15.99
2018-09-09T05:03:20.010Z,16.04
2018-09-09T05:05:47.655Z,16.06
2018-09-09T05:08:15.301Z,16.17
2018-09-09T05:10:42.976Z,16.05
2018-09-09T05:13:10.625Z,16.01
2018-09-09T05:15:38.323Z,16.04
2018-09-09T05:18:05.974Z,16.21
2018-09-09T05:20:33.631Z,16.14
2018-09-09T05:23:01.293Z,16.24
2018-09-09T05:25:28.971Z,16.23
2018-09-09T05:27:56.698Z,16.25
2018-09-09T05:30:24.370Z,16.29
2018-09-09T05:32:52.028Z,16.30
2018-09-09T05:35:19.705Z,16.32
2018-09-09T05:37:47.378Z,16.30
2018-09-09T05:40:15.062Z,16.30
2018-09-09T05:42:42.722Z,16.31
2018-09-09T05:45:10.383Z,16.35
2018-09-09T05:47:38.037Z,16.34
2018-09-09T05:50:05.742Z,16.37
2018-09-09T05:52:33.392Z,16.38
2018-09-09T05:55:01.028Z,16.38
2018-09-09T05:57:28.745Z,16.42
2018-09-09T05:59:56.425Z,16.42
2018-09-09T06:02:24.115Z,16.45
2018-09-09T06:04:51.784Z,16.47
2018-09-09T06:07:19.461Z,16.48
2018-09-09T06:09:47.151Z,16.50
2018-09-09T06:12:14.798Z,16.54
2018-09-09T06:14:42.467Z,16.56
2018-09-09T06:17:10.126Z,16.60
2018-09-09T06:19:37.787Z,16.60
2018-09-09T06:22:05.790Z,16.62
2018-09-09T06:24:33.508Z,16.65
2018-09-09T06:27:01.154Z,16.68
2018-09-09T06:29:28.799Z,16.68
2018-09-09T06:31:56.473Z,16.72
2018-09-09T06:34:24.153Z,16.78
2018-09-09T06:36:51.804Z,16.81
2018-09-09T06:39:19.467Z,16.81
2018-09-09T06:41:47.140Z,16.81
2018-09-09T06:44:14.833Z,16.82
2018-09-09T06:46:42.488Z,16.86
2018-09-09T06:49:10.154Z,16.86
2018-09-09T06:51:37.818Z,16.89
2018-09-09T06:54:05.630Z,16.92
2018-09-09T06:56:33.413Z,16.93
2018-09-09T06:59:01.075Z,16.91
2018-09-09T07:01:28.950Z,16.95
2018-09-09T07:03:56.614Z,16.97
2018-09-09T07:06:24.265Z,17.01
2018-09-09T07:08:51.917Z,16.95
2018-09-09T07:11:19.616Z,17.01
2018-09-09T07:13:47.287Z,17.02
2018-09-09T07:16:14.937Z,17.05
2018-09-09T07:18:42.617Z,17.09
2018-09-09T07:21:10.281Z,17.10
2018-09-09T07:23:37.958Z,17.13
2018-09-09T07:26:06.056Z,17.11
2018-09-09T07:28:33.799Z,17.15
2018-09-09T07:31:01.496Z,17.15
2018-09-09T07:33:29.128Z,17.15
2018-09-09T07:35:56.779Z,17.18
2018-09-09T07:38:24.447Z,17.20
2018-09-09T07:40:52.112Z,17.15
2018-09-09T07:43:19.795Z,17.14
2018-09-09T07:45:47.460Z,17.17
2018-09-09T07:48:15.132Z,17.24
2018-09-09T07:50:42.798Z,17.24
2018-09-09T07:55:51.769Z,17.20
2018-09-09T07:58:19.458Z,17.23
2018-09-09T08:00:47.110Z,17.27
2018-09-09T08:03:14.816Z,17.22
2018-09-09T08:05:42.476Z,17.09
2018-09-09T08:08:10.130Z,17.22
2018-09-09T08:10:37.782Z,17.20
2018-09-09T08:13:05.767Z,17.20
2018-09-09T08:15:33.413Z,17.20
2018-09-09T08:18:01.072Z,17.17
2018-09-09T08:20:28.728Z,17.20
2018-09-09T08:22:56.377Z,17.22
2018-09-09T08:25:24.076Z,17.21
2018-09-09T08:27:51.747Z,17.25
2018-09-09T08:30:19.419Z,17.27
2018-09-09T08:32:47.102Z,17.28
2018-09-09T08:35:14.759Z,17.27
2018-09-09T08:37:42.404Z,17.33
2018-09-09T08:40:10.086Z,17.31
2018-09-09T08:42:37.746Z,17.36
2018-09-09T08:45:05.670Z,17.38
2018-09-09T08:47:33.360Z,17.41
2018-09-09T08:50:01.019Z,17.43
2018-09-09T08:52:28.669Z,17.46
2018-09-09T08:54:56.325Z,17.45
2018-09-09T08:57:23.996Z,17.46
2018-09-09T08:59:51.635Z,17.47
2018-09-09T09:02:19.290Z,17.49
2018-09-09T09:04:46.914Z,17.56
2018-09-09T09:07:14.633Z,17.52
2018-09-09T09:09:42.350Z,17.51
2018-09-09T09:12:10.581Z,17.58
2018-09-09T09:14:39.027Z,17.63
2018-09-09T09:17:06.825Z,17.67
2018-09-09T09:19:34.581Z,17.67
2018-09-09T09:22:02.236Z,17.70
2018-09-09T09:24:29.941Z,17.70
2018-09-09T09:26:57.589Z,17.72
2018-09-09T09:29:28.341Z,17.74
2018-09-09T09:31:55.994Z,17.72
2018-09-09T09:34:23.645Z,17.76
2018-09-09T09:36:51.301Z,17.78
2018-09-09T09:39:18.977Z,17.83
2018-09-09T09:41:46.622Z,17.86
2018-09-09T09:44:14.286Z,17.90
2018-09-09T09:46:41.940Z,17.89
2018-09-09T09:49:09.608Z,17.84
2018-09-09T09:51:37.270Z,17.88
2018-09-09T09:54:05.077Z,17.93
2018-09-09T09:56:32.719Z,17.95
2018-09-09T09:59:00.441Z,17.97
2018-09-09T10:01:28.119Z,17.99
2018-09-09T10:03:56.486Z,17.97
2018-09-09T10:06:24.149Z,18.01
2018-09-09T10:08:51.843Z,18.06
2018-09-09T10:11:19.539Z,18.08
2018-09-09T10:13:47.224Z,18.14
2018-09-09T10:16:14.857Z,18.18
2018-09-09T10:18:42.576Z,18.14
2018-09-09T10:21:10.379Z,18.18
2018-09-09T10:23:38.139Z,18.10
2018-09-09T10:26:05.908Z,18.17
2018-09-09T10:28:33.633Z,18.19
2018-09-09T10:31:01.324Z,18.15
2018-09-09T10:33:29.082Z,18.14
2018-09-09T10:35:56.793Z,18.18
2018-09-09T10:38:24.466Z,18.19
2018-09-09T10:40:52.200Z,18.21
2018-09-09T10:43:19.930Z,18.23
2018-09-09T10:45:47.588Z,18.19
2018-09-09T10:48:15.285Z,18.14
2018-09-09T10:50:42.949Z,18.15
2018-09-09T10:53:10.639Z,18.13
2018-09-09T10:55:38.289Z,18.15
2018-09-09T10:58:05.936Z,18.20
2018-09-09T11:00:34.155Z,18.15
2018-09-09T11:03:01.822Z,18.17
2018-09-09T11:05:29.466Z,18.20
2018-09-09T11:07:57.155Z,18.21
2018-09-09T11:10:24.820Z,18.24
2018-09-09T11:12:52.481Z,18.20
2018-09-09T11:15:20.193Z,18.22
2018-09-09T11:17:47.854Z,18.22
2018-09-09T11:20:15.505Z,18.19
2018-09-09T11:22:43.146Z,18.16
2018-09-09T11:25:10.788Z,18.14
2018-09-09T11:27:38.444Z,18.19
2018-09-09T11:30:06.270Z,18.11
2018-09-09T11:32:33.919Z,18.03
2018-09-09T11:35:01.618Z,18.12
2018-09-09T11:37:29.262Z,18.16
2018-09-09T11:39:56.930Z,18.15
2018-09-09T11:42:24.621Z,18.13
2018-09-09T11:44:52.274Z,18.16
2018-09-09T11:47:19.959Z,18.15
2018-09-09T11:49:47.597Z,18.10
2018-09-09T11:52:15.263Z,18.12
2018-09-09T11:54:42.916Z,18.12
2018-09-09T11:57:10.660Z,18.16
2018-09-09T11:59:38.367Z,18.15
2018-09-09T12:02:06.135Z,18.11
2018-09-09T12:04:33.970Z,18.11
2018-09-09T12:07:01.618Z,17.69
2018-09-09T12:09:29.252Z,18.08
2018-09-09T12:11:56.933Z,18.07
2018-09-09T12:14:24.584Z,18.07
2018-09-09T12:16:52.217Z,18.01
2018-09-09T12:19:19.885Z,18.03
2018-09-09T12:21:47.538Z,17.98
2018-09-09T12:24:15.334Z,18.02
2018-09-09T12:26:43.012Z,18.09
2018-09-09T12:29:10.656Z,18.08
2018-09-09T12:31:38.310Z,18.06
2018-09-09T12:34:06.009Z,18.09
2018-09-09T12:36:33.652Z,18.10
2018-09-09T12:39:01.336Z,18.01
2018-09-09T12:41:29.002Z,18.02
2018-09-09T12:44:02.304Z,17.20
2018-09-09T12:46:35.493Z,17.94
2018-09-09T12:49:05.619Z,17.93
2018-09-09T12:51:33.285Z,17.89
2018-09-09T12:54:00.940Z,17.79
2018-09-09T12:56:28.600Z,17.85
2018-09-09T12:58:56.799Z,17.88
2018-09-09T13:01:24.469Z,17.85
2018-09-09T13:03:52.149Z,17.87
2018-09-09T13:06:19.968Z,17.80
2018-09-09T13:08:47.714Z,17.80
2018-09-09T13:11:15.538Z,17.80
2018-09-09T13:13:43.261Z,17.84
2018-09-09T13:16:12.055Z,17.86
2018-09-09T13:18:39.728Z,17.83
2018-09-09T13:21:07.429Z,17.84
2018-09-09T13:23:35.135Z,17.88
2018-09-09T13:26:02.851Z,17.90
2018-09-09T13:28:30.584Z,17.78
2018-09-09T13:30:58.344Z,17.80
2018-09-09T13:33:26.097Z,17.88
2018-09-09T13:35:54.136Z,17.92
2018-09-09T13:38:21.939Z,17.94
2018-09-09T13:40:49.660Z,17.96
2018-09-09T13:43:17.455Z,17.94
2018-09-09T13:45:45.167Z,17.92
2018-09-09T13:48:13.020Z,17.89
2018-09-09T13:50:40.710Z,17.97
2018-09-09T13:53:08.449Z,17.92
2018-09-09T13:55:36.149Z,17.94
2018-09-09T13:58:03.910Z,17.95
2018-09-09T14:00:31.597Z,17.99
2018-09-09T14:02:59.247Z,17.97
2018-09-09T14:05:26.930Z,17.98
2018-09-09T14:07:54.667Z,17.97
2018-09-09T14:10:22.355Z,18.03
2018-09-09T14:12:50.019Z,18.04
2018-09-09T14:15:17.740Z,17.97
2018-09-09T14:17:45.428Z,17.98
2018-09-09T14:20:13.089Z,17.98
2018-09-09T14:22:40.766Z,17.95
2018-09-09T14:25:08.549Z,17.89
2018-09-09T14:27:36.194Z,17.89
2018-09-09T14:30:04.081Z,17.91
2018-09-09T14:32:31.784Z,17.84
2018-09-09T14:34:59.452Z,17.80
2018-09-09T14:37:27.116Z,17.84
2018-09-09T14:39:55.048Z,17.88
2018-09-09T14:42:22.737Z,17.86
2018-09-09T14:44:50.406Z,17.88
2018-09-09T14:47:18.066Z,17.86
2018-09-09T14:49:46.158Z,17.91
2018-09-09T14:52:13.823Z,17.86
2018-09-09T14:54:41.510Z,17.84
2018-09-09T14:57:09.217Z,17.85
2018-09-09T14:59:36.952Z,17.79
2018-09-09T15:02:04.716Z,17.73
2018-09-09T15:04:32.424Z,17.72
2018-09-09T15:07:00.183Z,17.81
2018-09-09T15:09:27.906Z,17.86
2018-09-09T15:11:55.649Z,17.83
2018-09-09T15:14:23.372Z,17.80
2018-09-09T15:16:51.114Z,17.64
2018-09-09T15:19:18.807Z,17.74
2018-09-09T15:21:46.525Z,17.73
2018-09-09T15:24:14.217Z,17.77
2018-09-09T15:26:43.053Z,17.74
2018-09-09T15:29:10.727Z,17.66
2018-09-09T15:31:38.453Z,17.76
2018-09-09T15:34:06.133Z,17.80
2018-09-09T15:36:33.836Z,17.73
2018-09-09T15:39:01.591Z,17.72
2018-09-09T15:41:29.490Z,17.76
2018-09-09T15:43:57.184Z,17.70
2018-09-09T15:46:24.841Z,17.70
2018-09-09T15:48:52.517Z,17.67
2018-09-09T15:51:20.192Z,17.66
2018-09-09T15:53:47.853Z,17.55
2018-09-09T15:56:15.522Z,17.54
2018-09-09T15:58:43.181Z,17.46
2018-09-09T16:01:10.856Z,17.52
2018-09-09T16:03:38.866Z,17.47
2018-09-09T16:06:06.591Z,17.40
2018-09-09T16:08:34.255Z,17.35
2018-09-09T16:11:02.320Z,17.31
2018-09-09T16:13:29.998Z,17.40
2018-09-09T16:15:57.673Z,17.36
2018-09-09T16:18:25.645Z,17.27
2018-09-09T16:20:53.345Z,17.39
2018-09-09T16:23:21.106Z,17.23
2018-09-09T16:25:49.062Z,17.18
2018-09-09T16:28:16.731Z,17.20
2018-09-09T16:30:44.448Z,17.19
2018-09-09T16:33:12.393Z,17.05
2018-09-09T16:35:40.074Z,17.08
2018-09-09T16:38:07.746Z,17.05
2018-09-09T16:40:35.421Z,17.17
2018-09-09T16:43:03.102Z,17.17
2018-09-09T16:45:30.794Z,17.06
2018-09-09T16:47:58.465Z,16.62
2018-09-09T16:50:26.523Z,16.89
2018-09-09T16:52:54.237Z,17.00
2018-09-09T16:55:21.925Z,17.01
2018-09-09T16:57:49.572Z,17.03
2018-09-09T17:00:17.256Z,16.94
2018-09-09T17:02:45.246Z,16.78
2018-09-09T17:05:12.918Z,16.64
2018-09-09T17:07:40.612Z,16.62
2018-09-09T17:10:08.339Z,16.81
2018-09-09T17:12:36.072Z,16.80
2018-09-09T17:15:03.881Z,16.78
2018-09-09T17:17:31.564Z,16.69
2018-09-09T17:19:59.363Z,16.60
2018-09-09T17:22:27.023Z,16.60
2018-09-09T17:24:54.702Z,16.61
2018-09-09T17:27:22.345Z,16.55
2018-09-09T17:29:50.352Z,16.54
2018-09-09T17:32:18.047Z,16.52
2018-09-09T17:34:45.740Z,16.49
2018-09-09T17:37:13.444Z,16.38
2018-09-09T17:39:41.134Z,16.27
2018-09-09T17:42:09.128Z,16.33
2018-09-09T17:44:36.812Z,16.29
2018-09-09T17:47:04.558Z,16.23
2018-09-09T17:49:32.229Z,16.29
2018-09-09T17:51:59.944Z,15.99
2018-09-09T17:54:27.994Z,16.10
2018-09-09T17:56:55.665Z,16.12
2018-09-09T17:59:23.419Z,16.09
2018-09-09T18:01:51.097Z,15.99
2018-09-09T18:04:18.786Z,15.71
2018-09-09T18:06:46.838Z,15.89
2018-09-09T18:09:14.542Z,15.87
2018-09-09T18:11:42.234Z,15.98
2018-09-09T18:14:09.941Z,16.00
2018-09-09T18:16:37.827Z,15.79
2018-09-09T18:19:05.501Z,15.65
2018-09-09T18:21:33.171Z,15.77
2018-09-09T18:24:01.153Z,15.86
2018-09-09T18:26:28.862Z,15.51
2018-09-09T18:28:56.544Z,15.45
2018-09-09T18:31:24.522Z,15.66
2018-09-09T18:33:52.256Z,15.66
2018-09-09T18:36:20.121Z,15.69
2018-09-09T18:38:48.113Z,15.38
2018-09-09T18:41:15.782Z,15.61
2018-09-09T18:43:43.474Z,15.58
2018-09-09T18:46:11.191Z,15.48
2018-09-09T18:48:39.250Z,15.59
2018-09-09T18:51:06.921Z,15.50
2018-09-09T18:53:34.633Z,15.49
2018-09-09T18:56:02.638Z,15.42
2018-09-09T18:58:30.279Z,15.35
2018-09-09T19:00:57.937Z,15.40
2018-09-09T19:03:25.607Z,15.35
2018-09-09T19:05:53.263Z,15.01
2018-09-09T19:08:20.947Z,15.29
2018-09-09T19:10:48.636Z,15.21
2018-09-09T19:13:16.326Z,15.23
2018-09-09T19:15:44.033Z,15.00
2018-09-09T19:18:11.701Z,15.24
2018-09-09T19:20:39.453Z,15.08
2018-09-09T19:23:07.421Z,15.00
2018-09-09T19:25:35.619Z,14.84
2018-09-09T19:28:03.312Z,14.94
2018-09-09T19:30:31.003Z,15.13
2018-09-09T19:32:58.697Z,14.93
2018-09-09T19:35:26.694Z,15.02
2018-09-09T19:37:54.388Z,15.14
2018-09-09T19:40:22.058Z,15.08
2018-09-09T19:42:49.730Z,15.12
2018-09-09T19:45:17.404Z,14.89
2018-09-09T19:47:45.074Z,14.62
2018-09-09T19:50:12.771Z,14.75
2018-09-09T19:52:40.445Z,15.03
2018-09-09T19:55:08.160Z,14.80
2018-09-09T19:57:35.867Z,14.71
2018-09-09T20:00:03.674Z,14.77
2018-09-09T20:02:31.351Z,14.63
2018-09-09T20:04:59.022Z,14.74
2018-09-09T20:07:27.040Z,14.72
2018-09-09T20:09:54.710Z,14.45
2018-09-09T20:12:22.379Z,14.75
2018-09-09T20:14:50.101Z,14.78
2018-09-09T20:17:17.818Z,14.62
2018-09-09T20:19:45.794Z,14.67
2018-09-09T20:22:13.466Z,14.55
2018-09-09T20:24:41.269Z,14.35
2018-09-09T20:27:08.944Z,14.55
2018-09-09T20:29:37.295Z,14.36
2018-09-09T20:32:05.309Z,14.60
2018-09-09T20:34:33.070Z,14.66
2018-09-09T20:37:00.741Z,14.48
2018-09-09T20:39:28.708Z,14.39
2018-09-09T20:41:56.409Z,14.54
2018-09-09T20:44:24.046Z,14.35
2018-09-09T20:46:52.028Z,14.54
2018-09-09T20:49:19.690Z,14.52
2018-09-09T20:51:48.471Z,14.46
2018-09-09T20:54:16.146Z,14.49
2018-09-09T20:56:43.797Z,14.35
2018-09-09T20:59:11.469Z,14.47
2018-09-09T21:01:39.176Z,14.33
2018-09-09T21:04:07.250Z,14.42
2018-09-09T21:06:34.901Z,14.57
2018-09-09T21:09:02.708Z,14.41
2018-09-09T21:11:31.181Z,14.37
2018-09-09T21:13:58.855Z,14.47
2018-09-09T21:16:26.581Z,14.57
2018-09-09T21:18:54.271Z,14.55
2018-09-09T21:21:22.349Z,14.55
2018-09-09T21:23:50.032Z,14.56
2018-09-09T21:26:17.717Z,14.58
2018-09-09T21:28:45.426Z,14.48
2018-09-09T21:31:13.106Z,14.12
2018-09-09T21:33:40.767Z,13.91
2018-09-09T21:36:08.497Z,13.99
2018-09-09T21:38:36.180Z,14.17
2018-09-09T21:41:03.916Z,14.10
2018-09-09T21:43:31.974Z,14.00
2018-09-09T21:45:59.675Z,13.91
2018-09-09T21:48:27.377Z,13.97
2018-09-09T21:50:55.165Z,14.00
2018-09-09T21:53:23.383Z,13.83
2018-09-09T21:55:51.345Z,14.01
2018-09-09T21:58:19.041Z,13.68
2018-09-09T22:01:53.686Z,13.68
2018-09-09T22:04:21.354Z,13.64
2018-09-09T22:06:49.028Z,13.69
2018-09-09T22:09:16.713Z,13.93
2018-09-09T22:11:44.373Z,14.01
2018-09-09T22:14:12.045Z,14.14
2018-09-09T22:16:39.703Z,14.13
2018-09-09T22:19:07.497Z,14.03
2018-09-09T22:21:35.141Z,13.65
2018-09-09T22:24:02.832Z,13.50
2018-09-09T22:26:30.560Z,13.51
2018-09-09T22:28:58.529Z,13.66
2018-09-09T22:31:26.233Z,13.71
2018-09-09T22:33:53.934Z,13.88
2018-09-09T22:36:21.661Z,14.06
2018-09-09T22:38:49.330Z,14.11
2018-09-09T22:41:17.083Z,14.13
2018-09-09T22:43:44.742Z,14.16
2018-09-09T22:46:12.726Z,14.12
2018-09-09T22:48:40.409Z,14.20
2018-09-09T22:51:08.065Z,14.23
2018-09-09T22:53:35.733Z,14.25
2018-09-09T22:56:03.681Z,14.27
2018-09-09T22:58:31.374Z,14.29
2018-09-09T23:00:59.038Z,14.25
2018-09-09T23:03:27.009Z,14.19
2018-09-09T23:05:54.670Z,14.27
2018-09-09T23:08:22.382Z,14.28
2018-09-09T23:10:50.401Z,14.07
2018-09-09T23:13:18.079Z,14.13
2018-09-09T23:15:45.839Z,14.10
2018-09-09T23:18:13.525Z,14.07
2018-09-09T23:20:41.255Z,14.04
2018-09-09T23:23:08.943Z,14.14
2018-09-09T23:25:37.013Z,14.19
2018-09-09T23:28:04.814Z,14.26
2018-09-09T23:30:32.472Z,14.16
2018-09-09T23:33:00.137Z,14.12
2018-09-09T23:35:28.189Z,14.13
2018-09-09T23:37:55.885Z,14.17
2018-09-09T23:40:23.560Z,14.20
2018-09-09T23:42:51.214Z,14.27
2018-09-09T23:45:18.878Z,14.21
2018-09-09T23:47:57.085Z,14.23
2018-09-09T23:50:24.763Z,14.33
2018-09-09T23:52:52.420Z,14.14
2018-09-09T23:55:20.091Z,14.27
2018-09-09T23:57:48.149Z,14.37
